createdAt,value
2023-01-13T00:02:15.950Z,99930.34
2023-01-13T00:04:42.476Z,99943.97
2023-01-13T00:07:08.924Z,99944.69
2023-01-13T00:09:35.384Z,99943.22
2023-01-13T00:12:01.851Z,99943.22
2023-01-13T00:14:30.161Z,99941.75
2023-01-13T00:16:56.599Z,99945.38
2023-01-13T00:19:23.213Z,99944.63
2023-01-13T00:21:49.645Z,99941.03
2023-01-13T00:24:16.081Z,99941.75
2023-01-13T00:26:42.525Z,99940.22
2023-01-13T00:29:09.051Z,99935.22
2023-01-13T00:31:35.551Z,99940.22
2023-01-13T00:34:02.610Z,99936.59
2023-01-13T00:36:29.116Z,99937.28
2023-01-13T00:38:55.588Z,99935.88
2023-01-13T00:41:22.722Z,99927.25
2023-01-13T00:43:49.241Z,99935.16
2023-01-13T00:46:16.477Z,99938.75
2023-01-13T00:48:42.953Z,99930.13
2023-01-13T00:51:19.073Z,99930.13
2023-01-13T00:53:46.553Z,99924.44
2023-01-13T00:56:14.517Z,99924.44
2023-01-13T00:58:40.999Z,99924.44
2023-01-13T01:01:08.117Z,99929.53
2023-01-13T01:03:35.389Z,99929.53
2023-01-13T01:06:05.894Z,99915.16
2023-01-13T01:08:32.436Z,99924.50
2023-01-13T01:11:02.451Z,99923.78
2023-01-13T01:13:28.920Z,99926.59
2023-01-13T01:15:55.395Z,99933.06
2023-01-13T01:18:21.845Z,99927.31
2023-01-13T01:20:48.283Z,99915.81
2023-01-13T01:23:14.719Z,99927.31
2023-01-13T01:25:41.158Z,99922.22
2023-01-13T01:28:07.589Z,99924.38
2023-01-13T01:30:34.074Z,99931.63
2023-01-13T01:33:03.161Z,99935.88
2023-01-13T01:35:29.605Z,99930.13
2023-01-13T01:37:56.125Z,99920.03
2023-01-13T01:40:22.611Z,99920.03
2023-01-13T01:43:21.497Z,99927.19
2023-01-13T01:45:47.959Z,99915.69
2023-01-13T01:48:14.404Z,99918.56
2023-01-13T01:50:40.841Z,99914.97
2023-01-13T01:53:11.870Z,99919.97
2023-01-13T01:55:38.313Z,99907.00
2023-01-13T01:58:09.967Z,99912.09
2023-01-13T02:00:36.426Z,99912.00
2023-01-13T02:03:02.889Z,99905.53
2023-01-13T02:05:29.349Z,99911.28
2023-01-13T02:07:56.362Z,99898.34
2023-01-13T02:10:23.953Z,99909.84
2023-01-13T02:12:50.389Z,99904.09
2023-01-13T02:15:18.107Z,99902.59
2023-01-13T02:17:47.950Z,99891.75
2023-01-13T02:20:14.385Z,99898.25
2023-01-13T02:22:50.084Z,99892.53
2023-01-13T02:25:38.936Z,99906.81
2023-01-13T02:28:12.759Z,99886.69
2023-01-13T02:31:11.512Z,99890.25
2023-01-13T02:33:40.536Z,99890.97
2023-01-13T02:36:22.166Z,99890.25
2023-01-13T02:38:52.219Z,99878.00
2023-01-13T02:41:40.132Z,99890.25
2023-01-13T02:48:43.995Z,99883.69
2023-01-13T02:51:12.322Z,99885.84
2023-01-13T02:53:39.927Z,99888.03
2023-01-13T02:56:06.408Z,99887.28
2023-01-13T02:58:32.868Z,99882.28
2023-01-13T03:00:59.381Z,99882.28
2023-01-13T03:03:25.772Z,99873.63
2023-01-13T03:05:53.643Z,99862.84
2023-01-13T03:08:19.909Z,99849.88
2023-01-13T03:10:54.958Z,99857.03
2023-01-13T03:13:25.538Z,99866.31
2023-01-13T03:16:00.043Z,99848.41
2023-01-13T03:18:32.474Z,99853.44
2023-01-13T03:21:01.839Z,99864.94
2023-01-13T03:23:30.207Z,99867.81
2023-01-13T03:26:00.357Z,99857.69
2023-01-13T03:28:30.240Z,99860.56
2023-01-13T03:30:58.755Z,99871.34
2023-01-13T03:33:32.452Z,99873.47
2023-01-13T03:36:08.398Z,99874.22
2023-01-13T03:38:36.579Z,99867.72
2023-01-13T03:41:07.664Z,99869.19
2023-01-13T03:43:55.544Z,99864.94
2023-01-13T03:46:25.661Z,99867.88
2023-01-13T03:48:52.381Z,99870.78
2023-01-13T03:51:19.697Z,99863.66
2023-01-13T03:53:47.562Z,99863.00
2023-01-13T03:56:16.111Z,99859.44
2023-01-13T03:58:42.940Z,99854.41
2023-01-13T04:01:15.502Z,99855.16
2023-01-13T04:03:42.744Z,99860.16
2023-01-13T04:06:12.395Z,99849.41
2023-01-13T04:08:39.894Z,99854.41
2023-01-13T04:11:09.902Z,99852.28
2023-01-13T04:13:37.018Z,99855.16
2023-01-13T04:16:03.366Z,99853.69
2023-01-13T04:18:30.485Z,99857.28
2023-01-13T04:20:57.281Z,99850.81
2023-01-13T04:23:23.710Z,99857.97
2023-01-13T04:25:50.031Z,99860.84
2023-01-13T04:28:16.413Z,99869.47
2023-01-13T04:30:42.811Z,99870.19
2023-01-13T04:33:09.238Z,99866.66
2023-01-13T04:35:35.572Z,99869.53
2023-01-13T04:38:02.404Z,99863.84
2023-01-13T04:40:28.734Z,99867.44
2023-01-13T04:42:55.052Z,99859.56
2023-01-13T04:45:21.390Z,99867.53
2023-01-13T04:47:48.581Z,99874.00
2023-01-13T04:50:15.009Z,99874.00
2023-01-13T04:52:41.338Z,99865.38
2023-01-13T04:55:08.014Z,99872.50
2023-01-13T04:57:34.990Z,99866.75
2023-01-13T05:00:01.953Z,99873.28
2023-01-13T05:02:28.278Z,99872.50
2023-01-13T05:04:54.637Z,99881.13
2023-01-13T05:07:20.980Z,99891.97
2023-01-13T05:09:47.290Z,99885.50
2023-01-13T05:12:32.201Z,99889.03
2023-01-13T05:15:17.055Z,99898.44
2023-01-13T05:17:43.369Z,99894.19
2023-01-13T05:20:09.985Z,99891.31
2023-01-13T05:22:55.012Z,99884.13
2023-01-13T05:25:21.422Z,99891.38
2023-01-13T05:27:48.111Z,99900.72
2023-01-13T05:30:14.490Z,99906.47
2023-01-13T05:32:40.858Z,99895.69
2023-01-13T05:35:07.277Z,99895.69
2023-01-13T05:37:33.603Z,99902.88
2023-01-13T05:40:18.406Z,99903.59
2023-01-13T05:43:03.237Z,99908.63
2023-01-13T05:45:32.494Z,99923.00
2023-01-13T05:47:58.854Z,99917.91
2023-01-13T05:50:25.344Z,99920.78
2023-01-13T05:52:51.690Z,99923.00
2023-01-13T05:55:18.192Z,99919.34
2023-01-13T05:57:44.647Z,99920.13
2023-01-13T06:00:11.155Z,99916.56
2023-01-13T06:02:40.294Z,99921.56
2023-01-13T06:05:06.749Z,99915.81
2023-01-13T06:07:33.066Z,99913.03
2023-01-13T06:09:59.388Z,99906.69
2023-01-13T06:12:25.733Z,99910.34
2023-01-13T06:14:52.172Z,99914.63
2023-01-13T06:17:18.661Z,99914.47
2023-01-13T06:19:45.065Z,99917.47
2023-01-13T06:22:17.486Z,99918.25
2023-01-13T06:24:45.804Z,99911.06
2023-01-13T06:27:12.143Z,99924.66
2023-01-13T06:29:38.460Z,99931.84
2023-01-13T06:32:11.308Z,99929.06
2023-01-13T06:34:37.655Z,99914.63
2023-01-13T06:37:04.279Z,99914.63
2023-01-13T06:39:31.143Z,99916.75
2023-01-13T06:42:16.331Z,99884.41
2023-01-13T06:44:43.127Z,99895.91
2023-01-13T06:47:09.452Z,99900.16
2023-01-13T06:49:35.765Z,99902.38
2023-01-13T06:52:02.131Z,99913.16
2023-01-13T06:54:28.464Z,99905.91
2023-01-13T06:56:54.828Z,99899.44
2023-01-13T06:59:21.346Z,99907.28
2023-01-13T07:01:47.811Z,99917.34
2023-01-13T07:04:14.605Z,99910.88
2023-01-13T07:06:41.068Z,99912.28
2023-01-13T07:09:07.392Z,99882.81
2023-01-13T07:11:33.741Z,99879.13
2023-01-13T07:14:19.518Z,99879.81
2023-01-13T07:16:46.020Z,99883.69
2023-01-13T07:19:12.417Z,99891.47
2023-01-13T07:21:38.778Z,99894.13
2023-01-13T07:24:05.341Z,99905.75
2023-01-13T07:26:31.751Z,99891.38
2023-01-13T07:28:58.086Z,99912.81
2023-01-13T07:31:25.923Z,99921.44
2023-01-13T07:33:52.260Z,99892.69
2023-01-13T07:36:18.597Z,99914.22
2023-01-13T07:38:44.925Z,99927.81
2023-01-13T07:41:32.931Z,99922.91
2023-01-13T07:44:00.369Z,99935.81
2023-01-13T07:46:26.737Z,99927.06
2023-01-13T07:48:53.076Z,99922.06
2023-01-13T07:51:19.427Z,99924.13
2023-01-13T07:53:45.769Z,99925.38
2023-01-13T07:56:12.083Z,99929.75
2023-01-13T07:58:38.405Z,99948.44
2023-01-13T08:01:12.087Z,99953.44
2023-01-13T08:03:38.784Z,99949.19
2023-01-13T08:06:05.723Z,99951.38
2023-01-13T08:08:32.047Z,99947.03
2023-01-13T08:10:58.973Z,99958.59
2023-01-13T08:13:25.319Z,99971.63
2023-01-13T08:15:55.079Z,99973.78
2023-01-13T08:18:22.254Z,99969.75
2023-01-13T08:20:48.929Z,99963.84
2023-01-13T08:23:15.267Z,99969.28
2023-01-13T08:25:41.991Z,99956.56
2023-01-13T08:28:08.484Z,99972.28
2023-01-13T08:30:34.885Z,99971.81
2023-01-13T08:33:01.801Z,99965.56
2023-01-13T08:35:28.125Z,99984.59
2023-01-13T08:37:54.494Z,99967.13
2023-01-13T08:40:21.619Z,99954.28
2023-01-13T08:42:48.829Z,99967.34
2023-01-13T08:45:15.318Z,99984.53
2023-01-13T08:47:41.702Z,100003.31
2023-01-13T08:50:08.264Z,99987.66
2023-01-13T08:52:34.601Z,99996.41
2023-01-13T08:55:00.918Z,99993.41
2023-01-13T08:57:27.323Z,99966.94
2023-01-13T08:59:53.709Z,99959.34
2023-01-13T09:02:20.534Z,99966.72
2023-01-13T09:04:46.956Z,99927.16
2023-01-13T09:07:13.332Z,99851.28
2023-01-13T09:09:39.651Z,99911.66
2023-01-13T09:12:24.575Z,99976.16
2023-01-13T09:14:50.906Z,99979.63
2023-01-13T09:17:18.388Z,99981.91
2023-01-13T09:19:44.720Z,99978.06
2023-01-13T09:22:14.029Z,99984.81
2023-01-13T09:24:40.376Z,99982.50
2023-01-13T09:27:06.724Z,99985.81
2023-01-13T09:29:33.057Z,99980.22
2023-01-13T09:31:59.404Z,99982.25
2023-01-13T09:34:44.528Z,99980.97
2023-01-13T09:37:10.857Z,99976.38
2023-01-13T09:39:37.184Z,99953.22
2023-01-13T09:42:41.039Z,99968.66
2023-01-13T09:45:13.584Z,99970.00
2023-01-13T09:47:43.453Z,99991.69
2023-01-13T09:50:24.251Z,99982.31
2023-01-13T09:52:50.590Z,99994.63
2023-01-13T09:55:23.269Z,99992.06
2023-01-13T09:57:49.597Z,100009.56
2023-01-13T10:00:22.749Z,99997.44
2023-01-13T10:03:07.906Z,99999.75
2023-01-13T10:05:37.736Z,100005.34
2023-01-13T10:08:14.950Z,99995.88
2023-01-13T10:10:51.502Z,100005.22
2023-01-13T10:13:20.022Z,99999.53
2023-01-13T10:15:52.291Z,99999.66
2023-01-13T10:18:22.368Z,99998.97
2023-01-13T10:21:01.589Z,99988.28
2023-01-13T10:23:34.484Z,99986.59
2023-01-13T10:26:03.972Z,99989.38
2023-01-13T10:28:30.366Z,99999.28
2023-01-13T10:30:56.747Z,99994.63
2023-01-13T10:33:27.718Z,99994.03
2023-01-13T10:36:01.126Z,99998.56
2023-01-13T10:38:31.295Z,99997.09
2023-01-13T10:40:58.617Z,99994.63
2023-01-13T10:43:25.094Z,99988.63
2023-01-13T10:45:52.649Z,99992.19
2023-01-13T10:48:19.137Z,99994.50
2023-01-13T10:50:46.578Z,99996.84
2023-01-13T10:53:19.749Z,99994.00
2023-01-13T10:55:57.658Z,99991.94
2023-01-13T10:58:24.455Z,99999.66
2023-01-13T11:00:51.465Z,99989.97
2023-01-13T11:03:21.936Z,99989.00
2023-01-13T11:05:49.023Z,99994.81
2023-01-13T11:08:16.597Z,99990.72
2023-01-13T11:10:46.917Z,99995.22
2023-01-13T11:13:16.824Z,99995.34
2023-01-13T11:15:55.425Z,99987.75
2023-01-13T11:18:24.520Z,99986.44
2023-01-13T11:20:50.971Z,99986.44
2023-01-13T11:23:17.248Z,99989.59
2023-01-13T11:25:45.085Z,99993.53
2023-01-13T11:28:28.585Z,99991.09
2023-01-13T11:30:56.373Z,99994.81
2023-01-13T11:33:35.423Z,99985.41
2023-01-13T11:36:12.335Z,99991.19
2023-01-13T11:38:49.781Z,99996.31
2023-01-13T11:41:34.823Z,99997.72
2023-01-13T11:44:09.939Z,99982.59
2023-01-13T11:46:36.310Z,99991.28
2023-01-13T11:49:02.734Z,99993.50
2023-01-13T11:51:38.672Z,99994.25
2023-01-13T11:54:31.148Z,100015.91
2023-01-13T11:57:02.081Z,100000.06
2023-01-13T11:59:50.766Z,100001.44
2023-01-13T12:02:35.519Z,100018.00
2023-01-13T12:05:01.791Z,99998.00
2023-01-13T12:07:46.922Z,100001.00
2023-01-13T12:10:16.917Z,99995.72
2023-01-13T12:12:55.440Z,100006.72
2023-01-13T12:15:22.185Z,100005.63
2023-01-13T12:17:58.063Z,100000.09
2023-01-13T12:20:42.978Z,99996.41
2023-01-13T12:23:24.909Z,100010.16
2023-01-13T12:25:52.743Z,100000.94
2023-01-13T12:28:24.140Z,100002.97
2023-01-13T12:30:51.938Z,100016.63
2023-01-13T12:33:21.104Z,100010.16
2023-01-13T12:35:54.027Z,100009.44
2023-01-13T12:38:34.420Z,100001.59
2023-01-13T12:41:19.290Z,100008.84
2023-01-13T12:44:07.513Z,100014.59
2023-01-13T12:46:34.247Z,100017.34
2023-01-13T12:49:04.595Z,100022.31
2023-01-13T12:51:33.209Z,100020.16
2023-01-13T12:54:00.077Z,100004.41
2023-01-13T12:56:27.818Z,100015.88
2023-01-13T12:59:13.963Z,100025.84
2023-01-13T13:01:40.412Z,100020.81
2023-01-13T13:04:10.632Z,100020.81
2023-01-13T13:06:37.501Z,100020.03
2023-01-13T13:09:04.685Z,100014.22
2023-01-13T13:11:53.894Z,100021.31
2023-01-13T13:14:39.006Z,100024.75
2023-01-13T13:17:31.723Z,100041.16
2023-01-13T13:19:58.725Z,100025.31
2023-01-13T13:22:27.953Z,100029.03
2023-01-13T13:24:54.400Z,100034.75
2023-01-13T13:27:28.141Z,100035.88
2023-01-13T13:29:57.518Z,100035.44
2023-01-13T13:32:42.394Z,100040.56
2023-01-13T13:35:20.765Z,100047.13
2023-01-13T13:38:24.689Z,100039.69
2023-01-13T13:41:09.616Z,100050.38
2023-01-13T13:43:58.373Z,100049.06
2023-01-13T13:46:44.683Z,100048.94
2023-01-13T13:49:11.873Z,100049.38
2023-01-13T13:51:42.525Z,100047.19
2023-01-13T13:54:10.336Z,100038.50
2023-01-13T13:56:38.352Z,100042.03
2023-01-13T13:59:04.686Z,100048.53
2023-01-13T14:01:35.294Z,100058.91
2023-01-13T14:04:10.779Z,100055.25
2023-01-13T14:06:37.124Z,100060.66
2023-01-13T14:09:03.534Z,100067.25
2023-01-13T14:11:31.951Z,100059.75
2023-01-13T14:14:02.053Z,100058.66
2023-01-13T14:16:28.381Z,100058.44
2023-01-13T14:18:54.731Z,100057.34
2023-01-13T14:21:22.880Z,100063.34
2023-01-13T14:23:50.108Z,100069.47
2023-01-13T14:26:16.804Z,100065.19
2023-01-13T14:28:43.294Z,100060.75
2023-01-13T14:31:09.751Z,100064.75
2023-01-13T14:33:38.863Z,100058.84
2023-01-13T14:36:08.236Z,100054.91
2023-01-13T14:38:34.573Z,100062.25
2023-01-13T14:41:29.969Z,100055.78
2023-01-13T14:43:57.424Z,100068.00
2023-01-13T14:46:25.479Z,100065.88
2023-01-13T14:48:52.903Z,100075.25
2023-01-13T14:51:23.105Z,100068.75
2023-01-13T14:53:49.439Z,100068.75
2023-01-13T14:56:34.363Z,100078.84
2023-01-13T14:59:02.342Z,100083.88
2023-01-13T15:01:30.026Z,100077.31
2023-01-13T15:04:14.959Z,100086.69
2023-01-13T15:06:45.307Z,100082.00
2023-01-13T15:09:12.536Z,100078.91
2023-01-13T15:11:38.965Z,100079.28
2023-01-13T15:14:08.607Z,100083.09
2023-01-13T15:16:35.177Z,100090.22
2023-01-13T15:19:01.542Z,100078.47
2023-01-13T15:21:27.874Z,100090.63
2023-01-13T15:23:54.207Z,100086.31
2023-01-13T15:26:21.665Z,100090.69
2023-01-13T15:28:48.022Z,100101.22
2023-01-13T15:31:14.387Z,100098.88
2023-01-13T15:33:41.441Z,100100.53
2023-01-13T15:36:17.446Z,100094.03
2023-01-13T15:38:43.877Z,100094.72
2023-01-13T15:41:10.235Z,100096.19
2023-01-13T15:43:55.115Z,100105.75
2023-01-13T15:46:39.908Z,100108.59
2023-01-13T15:49:20.977Z,100110.50
2023-01-13T15:51:47.683Z,100107.69
2023-01-13T15:54:14.434Z,100108.06
2023-01-13T15:56:42.186Z,100105.75
2023-01-13T15:59:15.918Z,100110.88
2023-01-13T16:01:42.392Z,100113.81
2023-01-13T16:04:09.205Z,100115.25
2023-01-13T16:06:36.199Z,100133.28
2023-01-13T16:09:03.723Z,100121.88
2023-01-13T16:11:30.178Z,100120.00
2023-01-13T16:13:56.553Z,100132.72
2023-01-13T16:16:23.873Z,100131.09
2023-01-13T16:18:50.308Z,100134.47
2023-01-13T16:21:16.731Z,100127.59
2023-01-13T16:23:43.259Z,100136.91
2023-01-13T16:26:14.465Z,100144.91
2023-01-13T16:28:40.804Z,100140.44
2023-01-13T16:31:21.975Z,100142.03
2023-01-13T16:33:48.482Z,100146.78
2023-01-13T16:36:15.560Z,100157.50
2023-01-13T16:38:41.883Z,100160.44
2023-01-13T16:41:08.349Z,100157.56
2023-01-13T16:43:34.918Z,100150.50
2023-01-13T16:46:01.288Z,100156.84
2023-01-13T16:48:27.621Z,100151.44
2023-01-13T16:50:54.093Z,100167.28
2023-01-13T16:53:20.439Z,100165.34
2023-01-13T16:55:46.781Z,100177.91
2023-01-13T16:58:19.611Z,100185.16
2023-01-13T17:00:49.069Z,100180.78
2023-01-13T17:03:15.643Z,100184.34
2023-01-13T17:05:43.014Z,100188.63
2023-01-13T17:08:15.369Z,100194.38
2023-01-13T17:10:41.783Z,100196.22
2023-01-13T17:13:16.072Z,100199.56
2023-01-13T17:15:43.289Z,100206.91
2023-01-13T17:18:11.437Z,100210.38
2023-01-13T17:20:37.787Z,100213.41
2023-01-13T17:23:04.142Z,100211.19
2023-01-13T17:25:30.660Z,100202.84
2023-01-13T17:27:57.029Z,100207.47
2023-01-13T17:30:23.365Z,100206.28
2023-01-13T17:32:49.708Z,100208.06
2023-01-13T17:35:18.997Z,100205.19
2023-01-13T17:37:45.736Z,100206.59
2023-01-13T17:40:12.214Z,100212.09
2023-01-13T17:42:38.557Z,100206.94
2023-01-13T17:45:06.081Z,100213.75
2023-01-13T17:47:32.403Z,100214.75
2023-01-13T17:49:58.819Z,100224.13
2023-01-13T17:52:25.228Z,100229.09
2023-01-13T17:54:52.712Z,100230.69
2023-01-13T17:57:19.109Z,100224.47
2023-01-13T17:59:46.894Z,100237.06
2023-01-13T18:02:13.563Z,100245.50
2023-01-13T18:04:40.066Z,100236.66
2023-01-13T18:07:06.478Z,100240.88
2023-01-13T18:09:33.114Z,100251.59
2023-01-13T18:11:59.640Z,100238.78
2023-01-13T18:14:26.043Z,100259.81
2023-01-13T18:16:52.505Z,100263.47
2023-01-13T18:19:38.651Z,100253.13
2023-01-13T18:22:23.476Z,100262.63
2023-01-13T18:25:08.374Z,100279.03
2023-01-13T18:27:35.210Z,100264.56
2023-01-13T18:30:01.662Z,100269.59
2023-01-13T18:32:32.654Z,100268.19
2023-01-13T18:35:05.771Z,100275.34
2023-01-13T18:37:32.915Z,100268.25
2023-01-13T18:39:59.257Z,100263.69
2023-01-13T18:42:44.078Z,100281.03
2023-01-13T18:45:10.724Z,100285.22
2023-01-13T18:47:39.088Z,100283.69
2023-01-13T18:50:05.581Z,100298.09
2023-01-13T18:52:31.945Z,100298.75
2023-01-13T18:54:58.275Z,100296.53
2023-01-13T18:57:24.646Z,100302.97
2023-01-13T18:59:51.060Z,100306.50
2023-01-13T19:02:18.202Z,100310.84
2023-01-13T19:04:44.688Z,100313.75
2023-01-13T19:07:21.886Z,100325.53
2023-01-13T19:09:49.957Z,100313.91
2023-01-13T19:12:23.396Z,100319.00
2023-01-13T19:14:49.726Z,100323.97
2023-01-13T19:17:16.102Z,100320.34
2023-01-13T19:19:43.827Z,100316.78
2023-01-13T19:22:10.644Z,100329.06
2023-01-13T19:24:36.973Z,100331.34
2023-01-13T19:27:03.367Z,100322.13
2023-01-13T19:29:33.139Z,100328.47
2023-01-13T19:32:00.186Z,100330.69
2023-01-13T19:34:26.731Z,100329.94
2023-01-13T19:36:53.210Z,100342.19
2023-01-13T19:39:22.564Z,100346.59
2023-01-13T19:42:07.622Z,100352.38
2023-01-13T19:44:52.751Z,100348.03
2023-01-13T19:47:19.223Z,100350.16
2023-01-13T19:49:45.553Z,100361.00
2023-01-13T19:52:12.181Z,100347.94
2023-01-13T19:54:38.505Z,100359.78
2023-01-13T19:57:04.937Z,100364.03
2023-01-13T19:59:32.939Z,100368.03
2023-01-13T20:02:00.503Z,100375.63
2023-01-13T20:04:29.426Z,100370.66
2023-01-13T20:06:56.686Z,100383.06
2023-01-13T20:09:23.002Z,100371.66
2023-01-13T20:11:52.406Z,100379.84
2023-01-13T20:14:18.941Z,100384.47
2023-01-13T20:16:45.278Z,100396.25
2023-01-13T20:19:11.614Z,100401.16
2023-01-13T20:21:39.608Z,100391.31
2023-01-13T20:24:06.098Z,100393.72
2023-01-13T20:26:32.436Z,100400.66
2023-01-13T20:28:58.787Z,100406.09
2023-01-13T20:31:25.179Z,100413.88
2023-01-13T20:33:51.598Z,100416.69
2023-01-13T20:36:25.289Z,100416.09
2023-01-13T20:38:51.625Z,100413.38
2023-01-13T20:41:36.647Z,100404.84
2023-01-13T20:44:02.965Z,100414.63
2023-01-13T20:46:29.457Z,100412.69
2023-01-13T20:48:55.875Z,100419.31
2023-01-13T20:51:27.915Z,100418.63
2023-01-13T20:53:55.701Z,100426.34
2023-01-13T20:56:22.102Z,100427.06
2023-01-13T20:58:48.417Z,100429.47
2023-01-13T21:01:14.833Z,100439.47
2023-01-13T21:03:41.283Z,100442.88
2023-01-13T21:06:08.154Z,100451.97
2023-01-13T21:08:34.489Z,100426.56
2023-01-13T21:11:02.342Z,100448.94
2023-01-13T21:13:48.973Z,100450.25
2023-01-13T21:16:15.400Z,100449.50
2023-01-13T21:19:00.268Z,100448.25
2023-01-13T21:21:26.620Z,100448.13
2023-01-13T21:23:53.086Z,100452.41
2023-01-13T21:26:19.898Z,100455.88
2023-01-13T21:28:46.356Z,100452.31
2023-01-13T21:31:12.674Z,100461.63
2023-01-13T21:33:39.299Z,100465.16
2023-01-13T21:36:06.057Z,100473.06
2023-01-13T21:38:32.575Z,100468.13
2023-01-13T21:41:02.456Z,100476.75
2023-01-13T21:43:47.601Z,100468.69
2023-01-13T21:46:32.723Z,100470.75
2023-01-13T21:48:59.185Z,100471.50
2023-01-13T21:51:25.581Z,100475.06
2023-01-13T21:53:51.917Z,100478.59
2023-01-13T21:56:18.232Z,100482.13
2023-01-13T21:58:44.566Z,100479.22
2023-01-13T22:01:11.900Z,100476.22
2023-01-13T22:03:57.529Z,100481.97
2023-01-13T22:06:24.082Z,100476.06
2023-01-13T22:08:50.588Z,100476.06
2023-01-13T22:11:16.932Z,100486.00
2023-01-13T22:14:02.007Z,100491.69
2023-01-13T22:16:28.393Z,100494.56
2023-01-13T22:18:54.747Z,100489.47
2023-01-13T22:21:21.101Z,100489.47
2023-01-13T22:23:50.565Z,100487.25
2023-01-13T22:26:17.540Z,100486.34
2023-01-13T22:28:44.114Z,100495.66
2023-01-13T22:31:11.006Z,100497.13
2023-01-13T22:33:37.568Z,100485.63
2023-01-13T22:36:04.633Z,100489.91
2023-01-13T22:38:31.065Z,100499.19
2023-01-13T22:40:57.903Z,100512.84
2023-01-13T22:43:24.364Z,100510.53
2023-01-13T22:46:19.886Z,100513.41
2023-01-13T22:48:48.184Z,100503.94
2023-01-13T22:51:15.133Z,100517.56
2023-01-13T22:53:41.463Z,100521.84
2023-01-13T22:56:08.015Z,100528.31
2023-01-13T22:58:34.361Z,100524.63
2023-01-13T23:01:07.542Z,100526.03
2023-01-13T23:03:33.933Z,100519.47
2023-01-13T23:06:01.569Z,100541.78
2023-01-13T23:08:27.923Z,100538.19
2023-01-13T23:10:59.816Z,100541.75
2023-01-13T23:13:26.159Z,100551.09
2023-01-13T23:15:52.519Z,100562.53
2023-01-13T23:18:19.013Z,100550.94
2023-01-13T23:20:45.383Z,100547.31
2023-01-13T23:23:11.730Z,100544.34
2023-01-13T23:25:38.078Z,100553.06
2023-01-13T23:28:04.443Z,100547.22
2023-01-13T23:30:30.824Z,100549.38
2023-01-13T23:32:57.330Z,100560.13
2023-01-13T23:35:23.687Z,100559.38
2023-01-13T23:37:50.033Z,100562.16
2023-01-13T23:40:16.367Z,100569.41
2023-01-13T23:42:42.705Z,100557.19
2023-01-13T23:45:09.414Z,100567.91
2023-01-13T23:47:36.261Z,100569.25
2023-01-13T23:50:02.918Z,100576.47
2023-01-13T23:52:29.259Z,100564.97
2023-01-13T23:54:55.695Z,100572.28
2023-01-13T23:57:22.172Z,100566.63
2023-01-13T23:59:48.496Z,100574.44
